Time;durP1;ratioP1;P1;durP2;ratioP2;P2;SDS_P1;SDS_P2;PMS_P1;PMS_P2;Temp;Humidity;BMP_temperature;BMP_pressure;BME280_temperature;BME280_humidity;BME280_pressure;Samples;Min_cycle;Max_cycle;Signal;HPM_P1;HPM_P2
2023/05/16 00:02:00;;;;;;;1.10;0.70;;;;;;;11.61;100.00;97271.50;1702526;75;765411;-70
2023/05/16 00:04:31;;;;;;;2.90;0.70;;;;;;;11.65;100.00;97274.03;1710004;75;671198;-72
2023/05/16 00:07:02;;;;;;;0.60;0.60;;;;;;;11.68;100.00;97270.28;1689897;75;1771694;-70
2023/05/16 00:09:32;;;;;;;0.75;0.50;;;;;;;11.67;100.00;97269.53;1696537;75;1818191;-72
2023/05/16 00:12:02;;;;;;;0.55;0.40;;;;;;;11.65;100.00;97268.53;1688911;75;1831113;-72
2023/05/16 00:14:36;;;;;;;0.80;0.60;;;;;;;11.44;100.00;97262.44;1695163;75;1890382;-73
2023/05/16 00:17:10;;;;;;;0.65;0.55;;;;;;;11.40;100.00;97257.22;1702881;75;744349;-72
2023/05/16 00:19:41;;;;;;;0.50;0.50;;;;;;;11.51;100.00;97251.03;1708857;75;811888;-72
2023/05/16 00:22:11;;;;;;;0.55;0.40;;;;;;;11.58;100.00;97249.81;1702287;75;751132;-73
2023/05/16 00:24:42;;;;;;;0.60;0.60;;;;;;;11.54;100.00;97241.06;1709665;75;675230;-72
2023/05/16 00:27:12;;;;;;;0.40;0.40;;;;;;;11.52;100.00;97241.56;1702424;75;751315;-74
2023/05/16 00:29:45;;;;;;;0.50;0.50;;;;;;;11.55;100.00;97239.84;1710677;75;678339;-72
2023/05/16 00:32:15;;;;;;;0.50;0.50;;;;;;;11.52;100.00;97241.56;1702726;75;751392;-72
2023/05/16 00:34:46;;;;;;;0.50;0.50;;;;;;;11.51;100.00;97229.84;1707449;75;918196;-74
2023/05/16 00:37:16;;;;;;;0.50;0.50;;;;;;;11.48;100.00;97222.59;1698951;75;982090;-72
2023/05/16 00:39:46;;;;;;;0.80;0.70;;;;;;;11.47;100.00;97210.16;1710455;75;672699;-71
2023/05/16 00:42:18;;;;;;;0.35;0.35;;;;;;;11.48;100.00;97202.69;1701778;75;748130;-71
2023/05/16 00:44:51;;;;;;;3.20;0.60;;;;;;;11.44;100.00;97188.44;1710685;75;674758;-72
2023/05/16 00:47:21;;;;;;;0.65;0.45;;;;;;;11.45;100.00;97187.22;1702867;75;740576;-73
2023/05/16 00:49:51;;;;;;;0.60;0.50;;;;;;;11.52;100.00;97184.00;1710995;75;688230;-72
2023/05/16 00:52:21;;;;;;;0.35;0.35;;;;;;;11.43;100.00;97181.47;1701741;75;758288;-72
2023/05/16 00:54:52;;;;;;;0.40;0.40;;;;;;;11.30;100.00;97181.91;1709936;75;800397;-72
2023/05/16 00:57:23;;;;;;;0.70;0.65;;;;;;;11.25;100.00;97186.13;1701325;75;754666;-72
2023/05/16 00:59:56;;;;;;;2.80;1.40;;;;;;;11.03;100.00;97192.25;1708963;75;972077;-73
2023/05/16 01:02:28;;;;;;;1.80;1.50;;;;;;;11.06;100.00;97199.50;1701593;75;752110;-72
2023/05/16 01:04:58;;;;;;;1.80;1.40;;;;;;;11.19;100.00;97201.81;1711450;75;677974;-73
2023/05/16 01:07:29;;;;;;;1.45;0.95;;;;;;;11.38;100.00;97199.41;1701312;75;776330;-71
2023/05/16 01:09:59;;;;;;;1.20;1.10;;;;;;;11.41;100.00;97195.66;1711667;75;676751;-75
2023/05/16 01:12:40;;;;;;;2.05;0.85;;;;;;;11.39;100.00;97200.88;1701881;75;741929;-71
2023/05/16 01:15:20;;;;;;;0.80;0.80;;;;;;;11.39;100.00;97198.16;1700850;75;885090;-70
2023/05/16 01:18:03;;;;;;;2.50;0.70;;;;;;;10.76;100.00;97195.59;1710518;75;681622;-71
2023/05/16 01:20:45;;;;;;;0.90;0.80;;;;;;;11.22;100.00;97205.56;1676393;75;2939121;-73
2023/05/16 01:23:29;;;;;;;0.80;0.80;;;;;;;11.30;100.00;97201.88;1702991;75;673578;-73
2023/05/16 01:26:13;;;;;;;0.50;0.50;;;;;;;11.39;100.00;97203.63;1711514;75;676326;-73
2023/05/16 01:28:46;;;;;;;1.20;0.70;;;;;;;11.33;100.00;97204.84;1702011;75;741959;-76
2023/05/16 01:31:17;;;;;;;0.70;0.70;;;;;;;11.08;100.00;97209.97;1711584;75;672344;-74
2023/05/16 01:33:47;;;;;;;1.30;0.60;;;;;;;11.16;100.00;97202.03;1702447;75;734008;-70
2023/05/16 01:36:27;;;;;;;1.10;0.80;;;;;;;11.27;100.00;97200.09;1712006;75;677961;-71
2023/05/16 01:39:06;;;;;;;1.70;0.80;;;;;;;11.30;100.00;97182.69;1703222;75;748416;-72
2023/05/16 01:41:53;;;;;;;1.00;0.70;;;;;;;11.31;100.00;97169.72;1703844;75;679100;-72
2023/05/16 01:44:33;;;;;;;0.60;0.60;;;;;;;11.29;100.00;97161.25;1709482;75;922952;-71
2023/05/16 01:47:11;;;;;;;2.90;0.80;;;;;;;11.31;100.00;97158.75;1698413;75;972879;-72
2023/05/16 01:49:48;;;;;;;1.65;0.80;;;;;;;11.34;100.00;97154.28;1704033;75;674183;-71
2023/05/16 01:52:25;;;;;;;;;;;;;;;11.40;100.00;97149.56;1711176;75;671436;-71
2023/05/16 01:55:00;;;;;;;1.30;0.75;;;;;;;11.35;100.00;97134.59;1703310;75;674769;-71
2023/05/16 01:57:33;;;;;;;0.70;0.60;;;;;;;11.04;100.00;97135.47;1708669;75;854303;-72
2023/05/16 02:00:04;;;;;;;1.70;1.00;;;;;;;11.31;100.00;97125.88;1703038;75;744853;-73
2023/05/16 02:02:34;;;;;;;0.90;0.80;;;;;;;11.35;100.00;97118.16;1710285;75;674567;-73
2023/05/16 02:05:05;;;;;;;1.10;1.00;;;;;;;10.71;100.00;97116.91;1702605;75;748156;-74
2023/05/16 02:07:35;;;;;;;1.20;1.10;;;;;;;10.91;100.00;97114.00;1695769;75;1898446;-75
2023/05/16 02:10:06;;;;;;;1.00;0.90;;;;;;;10.94;100.00;97118.50;1703045;75;743833;-72
2023/05/16 02:12:40;;;;;;;1.25;1.10;;;;;;;10.83;100.00;97121.19;1710618;75;674160;-70
2023/05/16 02:15:13;;;;;;;1.75;1.20;;;;;;;10.99;100.00;97122.50;1702705;75;739482;-72
2023/05/16 02:17:43;;;;;;;1.70;0.80;;;;;;;11.03;100.00;97121.03;1697604;75;1795183;-73
2023/05/16 02:20:15;;;;;;;0.80;0.80;;;;;;;11.09;100.00;97113.59;1702978;75;747084;-75
2023/05/16 02:22:46;;;;;;;0.90;0.70;;;;;;;11.01;100.00;97118.03;1710723;75;674506;-73
2023/05/16 02:25:18;;;;;;;0.90;0.70;;;;;;;11.10;100.00;97108.88;1702505;75;759253;-70
2023/05/16 02:27:51;;;;;;;0.60;0.60;;;;;;;11.20;100.00;97101.19;1686250;75;2765362;-72
2023/05/16 02:30:24;;;;;;;0.40;0.40;;;;;;;11.16;100.00;97095.94;1702187;75;739822;-72
2023/05/16 02:32:54;;;;;;;0.60;0.60;;;;;;;11.19;100.00;97099.69;1711589;75;673411;-74
2023/05/16 02:35:27;;;;;;;2.65;1.10;;;;;;;11.02;100.00;97103.13;1701813;75;748786;-72
2023/05/16 02:37:59;;;;;;;2.95;1.50;;;;;;;11.01;100.00;97109.81;1711311;75;674075;-71
2023/05/16 02:40:29;;;;;;;1.65;1.20;;;;;;;11.14;100.00;97103.16;1701576;75;755196;-72
2023/05/16 02:43:04;;;;;;;1.30;1.10;;;;;;;11.08;100.00;97098.38;1712295;75;671619;-71
2023/05/16 02:45:35;;;;;;;1.80;1.50;;;;;;;10.81;100.00;97088.81;1673882;75;2987524;-75
2023/05/16 02:48:05;;;;;;;1.70;1.40;;;;;;;11.05;100.00;97088.44;1711181;75;677654;-71
2023/05/16 02:50:36;;;;;;;2.30;1.65;;;;;;;11.05;100.00;97076.72;1677156;75;2753413;-71
2023/05/16 02:53:06;;;;;;;2.00;1.40;;;;;;;11.12;100.00;97076.25;1712200;75;675252;-71
2023/05/16 02:55:36;;;;;;;1.85;1.30;;;;;;;11.14;100.00;97079.25;1701267;75;743738;-71
2023/05/16 02:58:09;;;;;;;1.50;1.20;;;;;;;11.15;100.00;97086.22;1711962;75;683521;-71
2023/05/16 03:00:39;;;;;;;1.75;1.05;;;;;;;11.10;100.00;97084.22;1701337;75;749193;-73
2023/05/16 03:03:10;;;;;;;2.65;1.40;;;;;;;10.58;100.00;97085.25;1672290;75;3979121;-73
2023/05/16 03:05:41;;;;;;;2.85;2.00;;;;;;;10.68;100.00;97085.03;1700771;75;758022;-74
2023/05/16 03:08:13;;;;;;;2.10;1.60;;;;;;;11.02;100.00;97091.41;1711628;75;673611;-72
2023/05/16 03:10:44;;;;;;;2.30;1.50;;;;;;;11.06;100.00;97092.69;1698793;75;932126;-74
2023/05/16 03:13:17;;;;;;;2.90;2.00;;;;;;;11.07;100.00;97085.22;1711387;75;672747;-71
2023/05/16 03:15:48;;;;;;;4.25;3.15;;;;;;;10.99;100.00;97101.38;1701111;75;748262;-70
2023/05/16 03:18:18;;;;;;;3.95;2.95;;;;;;;10.89;100.00;97121.97;1711945;75;679430;-71
2023/05/16 03:20:48;;;;;;;3.40;2.45;;;;;;;10.86;100.00;97139.38;1700259;75;805876;-71
2023/05/16 03:23:18;;;;;;;1.95;1.40;;;;;;;10.81;100.00;97146.31;1711253;75;683647;-70
2023/05/16 03:25:49;;;;;;;2.10;1.45;;;;;;;10.93;100.00;97127.97;1689068;75;1705666;-75
2023/05/16 03:28:21;;;;;;;1.70;1.20;;;;;;;10.96;100.00;97126.22;1710034;75;816862;-73
2023/05/16 03:30:52;;;;;;;2.05;0.85;;;;;;;10.97;100.00;97144.19;1700817;75;760954;-72
2023/05/16 03:33:24;;;;;;;0.90;0.85;;;;;;;11.02;100.00;97154.41;1709720;75;815011;-75
2023/05/16 03:35:55;;;;;;;1.05;0.95;;;;;;;11.03;100.00;97153.16;1701337;75;756468;-69
2023/05/16 03:38:25;;;;;;;0.70;0.70;;;;;;;11.04;100.00;97130.75;1685075;75;2914593;-70
2023/05/16 03:40:55;;;;;;;2.15;0.70;;;;;;;10.93;100.00;97111.53;1702052;75;740263;-70
2023/05/16 03:43:28;;;;;;;3.30;1.30;;;;;;;10.67;100.00;97117.13;1699662;75;1699942;-70
2023/05/16 03:45:58;;;;;;;2.05;1.50;;;;;;;10.55;100.00;97115.56;1701432;75;739033;-71
2023/05/16 03:48:28;;;;;;;4.90;1.80;;;;;;;10.45;100.00;97104.81;1711532;75;672476;-70
2023/05/16 03:50:59;;;;;;;2.05;1.60;;;;;;;10.89;100.00;97097.31;1700584;75;747494;-71
2023/05/16 03:53:29;;;;;;;1.45;1.35;;;;;;;10.87;100.00;97103.31;1696994;75;1819253;-73
2023/05/16 03:55:59;;;;;;;1.95;1.40;;;;;;;11.00;100.00;97113.06;1701611;75;752870;-74
2023/05/16 03:58:32;;;;;;;1.70;1.20;;;;;;;11.07;100.00;97105.13;1710404;75;679787;-73
2023/05/16 04:01:02;;;;;;;1.50;1.30;;;;;;;11.07;100.00;97110.59;1700979;75;747256;-69
2023/05/16 04:03:32;;;;;;;1.40;1.00;;;;;;;10.94;100.00;97115.75;1710731;75;721903;-70
2023/05/16 04:06:03;;;;;;;1.35;1.05;;;;;;;10.94;100.00;97125.97;1700975;75;745874;-73
2023/05/16 04:08:33;;;;;;;5.20;1.60;;;;;;;10.84;100.00;97120.69;1710951;75;677289;-76
2023/05/16 04:11:03;;;;;;;1.50;1.20;;;;;;;10.97;100.00;97120.28;1699952;75;744523;-71
2023/05/16 04:13:36;;;;;;;1.05;0.90;;;;;;;11.11;100.00;97128.78;1710732;75;675660;-71
2023/05/16 04:16:09;;;;;;;3.95;3.00;;;;;;;11.16;100.00;97133.53;1700145;75;757173;-73
2023/05/16 04:18:40;;;;;;;2.90;2.30;;;;;;;11.22;100.00;97137.06;1709458;75;803641;-72
2023/05/16 04:21:13;;;;;;;2.50;1.90;;;;;;;11.19;100.00;97138.03;1688255;75;1760277;-72
2023/05/16 04:23:44;;;;;;;8.40;6.30;;;;;;;11.18;100.00;97142.00;1710679;75;672798;-71
2023/05/16 04:26:14;;;;;;;9.65;7.15;;;;;;;11.24;100.00;97137.31;1701613;75;743963;-72
2023/05/16 04:28:47;;;;;;;6.10;4.75;;;;;;;11.29;100.00;97133.84;1709707;75;674846;-73
2023/05/16 04:31:17;;;;;;;5.90;4.65;;;;;;;11.25;100.00;97134.06;1701542;75;751068;-74
2023/05/16 04:33:47;;;;;;;5.60;4.10;;;;;;;11.25;100.00;97136.06;1707315;75;974146;-71
2023/05/16 04:36:18;;;;;;;8.45;6.15;;;;;;;11.21;100.00;97132.81;1701427;75;740174;-73
2023/05/16 04:38:48;;;;;;;6.80;5.10;;;;;;;11.30;100.00;97129.84;1709540;75;812890;-70
2023/05/16 04:41:18;;;;;;;5.90;4.45;;;;;;;11.30;100.00;97138.06;1702407;75;744973;-69
2023/05/16 04:43:52;;;;;;;8.85;6.25;;;;;;;11.26;100.00;97141.06;1709838;75;679660;-71
2023/05/16 04:46:23;;;;;;;5.75;4.40;;;;;;;11.18;100.00;97152.97;1703293;75;762534;-71
2023/05/16 04:48:54;;;;;;;4.10;3.10;;;;;;;11.31;100.00;97145.06;1710959;75;674277;-71
2023/05/16 04:51:24;;;;;;;3.15;2.40;;;;;;;11.37;100.00;97150.56;1690600;75;1691879;-72
2023/05/16 04:53:54;;;;;;;2.40;1.95;;;;;;;11.36;100.00;97147.06;1709315;75;675283;-76
2023/05/16 04:56:25;;;;;;;2.20;1.50;;;;;;;11.38;100.00;97141.09;1701655;75;754717;-71
2023/05/16 04:58:58;;;;;;;1.20;1.10;;;;;;;11.44;100.00;97131.63;1709556;75;674810;-72
2023/05/16 05:01:28;;;;;;;1.35;1.00;;;;;;;11.41;100.00;97127.16;1701896;75;753144;-72
2023/05/16 05:03:59;;;;;;;1.30;1.20;;;;;;;11.41;100.00;97140.13;1692342;75;2087984;-72
2023/05/16 05:06:29;;;;;;;1.00;0.90;;;;;;;11.43;100.00;97132.88;1702137;75;740719;-73
2023/05/16 05:08:59;;;;;;;1.25;1.05;;;;;;;11.08;100.00;97136.00;1709592;75;676827;-70
2023/05/16 05:11:29;;;;;;;2.80;2.20;;;;;;;10.84;100.00;97136.38;1701903;75;741959;-70
2023/05/16 05:14:02;;;;;;;5.90;2.70;;;;;;;10.75;100.00;97134.59;1708770;75;676642;-71
2023/05/16 05:16:32;;;;;;;3.65;2.90;;;;;;;10.68;100.00;97131.56;1699934;75;865502;-69
2023/05/16 05:19:03;;;;;;;3.15;2.20;;;;;;;10.75;100.00;97126.41;1709162;75;681262;-71
2023/05/16 05:21:34;;;;;;;3.80;1.95;;;;;;;10.66;100.00;97121.84;1702350;75;747999;-71
2023/05/16 05:24:04;;;;;;;4.00;2.40;;;;;;;10.70;100.00;97110.66;1707981;75;676311;-72
2023/05/16 05:26:34;;;;;;;3.45;2.55;;;;;;;10.76;100.00;97113.44;1701513;75;732086;-70
2023/05/16 05:29:07;;;;;;;3.75;2.70;;;;;;;10.59;100.00;97111.38;1706799;75;816909;-73
2023/05/16 05:31:38;;;;;;;4.60;2.60;;;;;;;10.72;100.00;97110.94;1700590;75;791837;-75
2023/05/16 05:34:08;;;;;;;4.60;3.40;;;;;;;10.61;100.00;97110.88;1707610;75;794590;-72
2023/05/16 05:36:38;;;;;;;7.00;3.25;;;;;;;10.44;100.00;97117.00;1702236;75;744365;-73
2023/05/16 05:39:08;;;;;;;6.35;3.25;;;;;;;10.60;100.00;97112.09;1709615;75;682400;-72
2023/05/16 05:41:39;;;;;;;5.70;3.20;;;;;;;10.54;100.00;97114.81;1664112;75;3894756;-71
2023/05/16 05:44:12;;;;;;;6.00;3.70;;;;;;;10.69;100.00;97124.84;1707906;75;672246;-74
2023/05/16 05:46:44;;;;;;;3.15;2.60;;;;;;;10.82;100.00;97120.47;1699315;75;747863;-73
2023/05/16 05:49:14;;;;;;;4.10;2.85;;;;;;;10.84;100.00;97128.16;1706939;75;756816;-71
2023/05/16 05:51:50;;;;;;;3.20;2.40;;;;;;;11.07;100.00;97129.78;1703167;75;744339;-76
2023/05/16 05:54:21;;;;;;;4.75;2.30;;;;;;;11.27;100.00;97128.09;1686985;75;1954232;-71
2023/05/16 05:56:51;;;;;;;2.00;1.60;;;;;;;11.25;100.00;97119.63;1712655;75;676036;-72
2023/05/16 05:59:24;;;;;;;1.90;1.45;;;;;;;11.44;100.00;97120.69;1701548;75;692720;-68
2023/05/16 06:01:56;;;;;;;1.70;1.60;;;;;;;11.57;100.00;97127.69;1696805;75;1845015;-74
2023/05/16 06:04:26;;;;;;;2.85;2.00;;;;;;;11.60;100.00;97126.72;1701440;75;677916;-70
2023/05/16 06:06:57;;;;;;;2.10;1.90;;;;;;;11.67;100.00;97135.19;1628260;75;7611747;-72
2023/05/16 06:09:27;;;;;;;2.70;1.70;;;;;;;11.62;100.00;97135.19;1701838;75;673592;-71
2023/05/16 06:11:57;;;;;;;1.90;1.70;;;;;;;11.61;100.00;97139.16;1711507;75;673335;-70
2023/05/16 06:14:30;;;;;;;1.50;1.30;;;;;;;11.72;100.00;97142.69;1701177;75;673292;-71
2023/05/16 06:17:00;;;;;;;4.40;2.40;;;;;;;11.57;100.00;97147.63;1711076;75;692432;-70
2023/05/16 06:19:31;;;;;;;3.30;2.70;;;;;;;11.42;100.00;97156.03;1701884;75;680766;-72
2023/05/16 06:22:01;;;;;;;3.75;3.10;;;;;;;11.41;100.00;97176.47;1711771;75;679100;-70
2023/05/16 06:24:31;;;;;;;3.60;2.70;;;;;;;11.25;100.00;97179.91;1701707;75;687814;-69
2023/05/16 06:27:01;;;;;;;4.00;2.80;;;;;;;11.18;100.00;97196.81;1710544;75;673463;-72
2023/05/16 06:29:34;;;;;;;4.40;3.30;;;;;;;11.14;100.00;97201.78;1703020;75;672233;-72
2023/05/16 06:32:04;;;;;;;6.20;3.40;;;;;;;11.14;100.00;97218.97;1710791;75;674865;-69
2023/05/16 06:34:34;;;;;;;7.80;4.20;;;;;;;11.09;100.00;97227.91;1701643;75;673372;-74
2023/05/16 06:37:05;;;;;;;7.30;4.30;;;;;;;10.96;100.00;97241.25;1710774;75;672195;-70
2023/05/16 06:39:36;;;;;;;6.90;4.90;;;;;;;10.87;100.00;97256.66;1703307;75;684108;-72
2023/05/16 06:42:07;;;;;;;6.35;4.00;;;;;;;10.91;100.00;97261.88;1709924;75;675380;-70
2023/05/16 06:44:40;;;;;;;7.80;5.50;;;;;;;10.88;100.00;97257.41;1700939;75;677882;-72
2023/05/16 06:47:11;;;;;;;8.80;4.60;;;;;;;10.90;100.00;97260.41;1708957;75;671808;-70
2023/05/16 06:49:43;;;;;;;7.40;4.30;;;;;;;10.85;100.00;97256.38;1702713;75;679485;-69
2023/05/16 06:52:13;;;;;;;7.40;4.50;;;;;;;10.94;100.00;97263.66;1709766;75;674268;-73
2023/05/16 06:54:43;;;;;;;6.00;4.00;;;;;;;10.85;100.00;97250.91;1702130;75;675859;-71
2023/05/16 06:57:13;;;;;;;7.15;4.30;;;;;;;10.82;100.00;97248.38;1709158;75;672549;-72
2023/05/16 06:59:47;;;;;;;6.80;3.55;;;;;;;10.92;100.00;97235.25;1703652;75;675271;-71
2023/05/16 07:02:17;;;;;;;3.70;2.70;;;;;;;11.13;100.00;97239.38;1709370;75;683442;-70
2023/05/16 07:04:47;;;;;;;4.00;3.05;;;;;;;11.21;100.00;97236.94;1701654;75;745418;-74
2023/05/16 07:07:17;;;;;;;3.35;2.70;;;;;;;11.31;100.00;97238.22;1709139;75;674680;-73
2023/05/16 07:09:47;;;;;;;2.50;2.10;;;;;;;11.44;100.00;97233.03;1702374;75;744272;-74
2023/05/16 07:12:17;;;;;;;5.60;2.90;;;;;;;11.01;100.00;97226.84;1706977;75;909711;-71
2023/05/16 07:14:51;;;;;;;6.15;4.20;;;;;;;10.78;100.00;97223.22;1702630;75;721860;-72
2023/05/16 07:17:21;;;;;;;7.30;4.75;;;;;;;10.65;100.00;97212.66;1696973;75;1753769;-73
2023/05/16 07:19:51;;;;;;;4.45;3.55;;;;;;;10.73;100.00;97204.78;1701642;75;747461;-73
2023/05/16 07:22:22;;;;;;;4.00;3.00;;;;;;;11.19;100.00;97201.81;1709516;75;682185;-69
2023/05/16 07:24:55;;;;;;;4.55;3.20;;;;;;;11.24;100.00;97198.34;1701162;75;749181;-71
2023/05/16 07:27:26;;;;;;;3.60;2.90;;;;;;;11.46;100.00;97194.94;1708888;75;671269;-70
2023/05/16 07:29:58;;;;;;;4.45;2.95;;;;;;;11.24;100.00;97189.38;1702727;75;744449;-70
2023/05/16 07:32:29;;;;;;;6.80;3.80;;;;;;;11.26;100.00;97176.69;1709485;75;672694;-72
2023/05/16 07:34:59;;;;;;;6.50;4.95;;;;;;;11.00;100.00;97187.75;1702074;75;741102;-73
2023/05/16 07:37:29;;;;;;;5.15;4.25;;;;;;;11.14;100.00;97193.56;1709607;75;673041;-73
2023/05/16 07:39:59;;;;;;;8.50;4.90;;;;;;;11.15;100.00;97193.06;1699809;75;918459;-70
2023/05/16 07:42:29;;;;;;;5.25;3.65;;;;;;;11.59;100.00;97197.22;1708427;75;706589;-69
2023/05/16 07:45:02;;;;;;;5.15;3.90;;;;;;;11.42;100.00;97201.91;1701515;75;734746;-73
2023/05/16 07:47:32;;;;;;;3.90;2.70;;;;;;;11.70;100.00;97196.50;1709051;75;682645;-71
2023/05/16 07:50:03;;;;;;;4.30;3.30;;;;;;;11.70;100.00;97183.56;1702919;75;741485;-71
2023/05/16 07:52:33;;;;;;;6.55;4.80;;;;;;;10.98;100.00;97171.06;1709350;75;684512;-71
2023/05/16 07:55:03;;;;;;;6.60;4.70;;;;;;;10.86;100.00;97166.75;1698754;75;944138;-71
2023/05/16 07:57:33;;;;;;;6.90;4.60;;;;;;;10.80;100.00;97155.78;1709416;75;673627;-72
2023/05/16 08:00:08;;;;;;;6.90;5.45;;;;;;;10.79;100.00;97146.06;1701098;75;816084;-70
2023/05/16 08:02:38;;;;;;;8.30;6.10;;;;;;;10.73;100.00;97150.78;1709500;75;676258;-72
2023/05/16 08:05:10;;;;;;;7.05;5.30;;;;;;;10.85;100.00;97149.59;1701752;75;735077;-71
2023/05/16 08:07:40;;;;;;;9.45;6.15;;;;;;;11.02;100.00;97146.94;1709368;75;674390;-71
2023/05/16 08:10:12;;;;;;;5.65;4.50;;;;;;;11.16;100.00;97149.97;1702228;75;738421;-70
2023/05/16 08:12:42;;;;;;;7.70;4.90;;;;;;;11.33;100.00;97145.31;1708947;75;673225;-74
2023/05/16 08:15:15;;;;;;;4.60;4.00;;;;;;;11.65;100.00;97145.16;1700746;75;747236;-71
2023/05/16 08:17:45;;;;;;;7.60;6.45;;;;;;;11.36;100.00;97147.06;1710736;75;672960;-72
2023/05/16 08:20:16;;;;;;;13.00;9.15;;;;;;;11.17;100.00;97146.75;1702015;75;744650;-70
2023/05/16 08:22:47;;;;;;;9.20;6.40;;;;;;;11.66;100.00;97150.13;1710139;75;677823;-71
2023/05/16 08:25:17;;;;;;;6.25;4.90;;;;;;;11.72;100.00;97156.38;1699858;75;752239;-72
2023/05/16 08:27:48;;;;;;;4.95;4.20;;;;;;;11.54;100.00;97153.34;1705152;75;676838;-71
2023/05/16 08:30:21;;;;;;;6.90;5.00;;;;;;;11.16;100.00;97161.69;1698693;75;888908;-74
2023/05/16 08:32:52;;;;;;;4.60;3.40;;;;;;;11.71;100.00;97170.59;1706513;75;926036;-74
2023/05/16 08:35:22;;;;;;;5.90;4.40;;;;;;;11.22;100.00;97175.41;1700001;75;755355;-70
2023/05/16 08:37:52;;;;;;;7.20;4.40;;;;;;;11.40;100.00;97171.50;1705766;75;899904;-71
2023/05/16 08:40:24;;;;;;;6.35;3.95;;;;;;;11.71;100.00;97182.31;1700015;75;742569;-71
2023/05/16 08:42:55;;;;;;;5.10;4.40;;;;;;;11.67;100.00;97198.25;1709367;75;675136;-71
2023/05/16 08:45:29;;;;;;;5.80;4.90;;;;;;;11.64;100.00;97209.44;1699783;75;745313;-69
2023/05/16 08:48:02;;;;;;;7.80;4.30;;;;;;;11.84;100.00;97198.28;1708871;75;673619;-72
2023/05/16 08:50:34;;;;;;;7.75;5.45;;;;;;;11.26;100.00;97182.16;1700862;75;744350;-69
2023/05/16 08:53:08;;;;;;;9.05;6.00;;;;;;;11.35;100.00;97164.00;1709621;75;686224;-70
2023/05/16 08:55:43;;;;;;;9.55;6.45;;;;;;;11.25;100.00;97138.81;1700640;75;754728;-74
2023/05/16 08:58:14;;;;;;;8.10;5.60;;;;;;;11.26;100.00;97137.56;1708619;75;671369;-72
2023/05/16 09:00:47;;;;;;;7.65;6.05;;;;;;;11.41;100.00;97149.06;1698639;75;740318;-72
2023/05/16 09:03:19;;;;;;;7.80;6.25;;;;;;;11.33;100.00;97158.25;1709005;75;672227;-71
2023/05/16 09:05:51;;;;;;;7.40;5.95;;;;;;;11.46;100.00;97148.34;1699658;75;743671;-74
2023/05/16 09:08:21;;;;;;;5.90;4.70;;;;;;;11.96;100.00;97159.97;1708200;75;673511;-73
2023/05/16 09:10:52;;;;;;;7.60;6.20;;;;;;;11.47;100.00;97160.06;1687708;75;1727930;-71
2023/05/16 09:13:22;;;;;;;7.40;6.00;;;;;;;11.51;100.00;97149.59;1683169;75;2823899;-72
2023/05/16 09:16:16;;;;;;;6.35;5.65;;;;;;;11.60;100.00;97154.88;1699315;75;761886;-72
2023/05/16 09:18:48;;;;;;;7.10;5.90;;;;;;;11.71;100.00;97167.84;1697054;75;941687;-73
2023/05/16 09:21:19;;;;;;;6.80;5.50;;;;;;;11.86;100.00;97164.91;1708600;75;681008;-71
2023/05/16 09:23:52;;;;;;;6.45;5.60;;;;;;;11.78;100.00;97152.91;1700437;75;706277;-70
2023/05/16 09:26:23;;;;;;;5.60;5.00;;;;;;;11.60;100.00;97163.09;1708895;75;674385;-72
2023/05/16 09:28:57;;;;;;;7.15;5.80;;;;;;;11.70;100.00;97166.34;1698678;75;753006;-72
2023/05/16 09:31:36;;;;;;;7.60;5.20;;;;;;;11.74;100.00;97175.09;1694547;75;1905478;-70
2023/05/16 09:34:10;;;;;;;5.50;4.90;;;;;;;11.77;100.00;97179.59;1699178;75;739716;-71
2023/05/16 09:36:40;;;;;;;5.80;5.20;;;;;;;11.70;100.00;97174.56;1705834;75;874247;-71
2023/05/16 09:39:11;;;;;;;5.30;4.75;;;;;;;11.77;100.00;97182.31;1698812;75;746034;-74
2023/05/16 09:41:41;;;;;;;6.20;4.90;;;;;;;11.76;100.00;97177.31;1710179;75;671680;-71
2023/05/16 09:44:12;;;;;;;7.25;5.50;;;;;;;11.58;100.00;97171.06;1701997;75;762276;-71
2023/05/16 09:46:45;;;;;;;11.00;5.70;;;;;;;11.79;100.00;97173.63;1711372;75;680598;-73
2023/05/16 09:49:16;;;;;;;5.65;4.60;;;;;;;12.06;100.00;97191.38;1702414;75;754855;-70
2023/05/16 09:51:47;;;;;;;4.85;4.20;;;;;;;11.98;100.00;97193.09;1710110;75;834221;-71
2023/05/16 09:54:17;;;;;;;7.05;4.70;;;;;;;11.81;100.00;97190.28;1699707;75;871332;-71
2023/05/16 09:56:53;;;;;;;6.20;5.10;;;;;;;11.64;100.00;97193.75;1711414;75;676236;-70
2023/05/16 09:59:25;;;;;;;8.25;5.30;;;;;;;11.65;100.00;97189.78;1701663;75;749444;-72
2023/05/16 10:02:00;;;;;;;5.85;4.80;;;;;;;11.68;100.00;97188.03;1711862;75;680067;-71
2023/05/16 10:04:30;;;;;;;5.05;4.55;;;;;;;11.61;100.00;97183.03;1701621;75;756205;-70
2023/05/16 10:07:03;;;;;;;6.90;4.90;;;;;;;11.55;100.00;97158.34;1711645;75;682126;-69
2023/05/16 10:09:36;;;;;;;9.15;5.25;;;;;;;11.60;100.00;97154.13;1703130;75;758430;-70
2023/05/16 10:12:10;;;;;;;9.30;4.80;;;;;;;11.66;100.00;97144.66;1712324;75;678466;-71
2023/05/16 10:14:45;;;;;;;8.40;5.25;;;;;;;11.75;100.00;97151.16;1700263;75;864823;-69
2023/05/16 10:17:20;;;;;;;5.20;4.50;;;;;;;11.93;100.00;97145.97;1711132;75;678123;-69
2023/05/16 10:19:52;;;;;;;5.10;4.55;;;;;;;11.64;100.00;97151.88;1702665;75;756882;-71
2023/05/16 10:22:24;;;;;;;5.70;5.10;;;;;;;11.64;100.00;97144.41;1711305;75;677288;-73
2023/05/16 10:25:11;;;;;;;6.50;4.60;;;;;;;11.81;100.00;97147.19;1698777;75;954981;-73
2023/05/16 10:27:42;;;;;;;;;;;;;;;11.87;100.00;97153.44;1702707;75;688879;-71
2023/05/16 10:30:15;;;;;;;6.85;4.75;;;;;;;11.65;100.00;97156.88;1711553;75;673622;-71
2023/05/16 10:32:50;;;;;;;7.50;5.60;;;;;;;11.47;100.00;97138.88;1691199;67;1716852;-71
2023/05/16 10:35:20;;;;;;;6.85;4.75;;;;;;;11.58;100.00;97118.22;1710807;75;673082;-71
2023/05/16 10:37:51;;;;;;;7.40;5.50;;;;;;;11.39;100.00;97121.41;1702500;75;677299;-70
2023/05/16 10:40:22;;;;;;;5.90;5.20;;;;;;;11.48;100.00;97123.94;1711407;75;676887;-70
2023/05/16 10:42:59;;;;;;;6.40;5.20;;;;;;;11.41;100.00;97099.75;1703220;75;680839;-70
2023/05/16 10:45:30;;;;;;;6.60;5.60;;;;;;;11.40;100.00;97098.25;1710555;75;708646;-71
2023/05/16 10:48:07;;;;;;;5.50;4.90;;;;;;;11.75;100.00;97102.53;1710390;75;677832;-70
2023/05/16 10:50:40;;;;;;;8.10;6.00;;;;;;;11.50;100.00;97087.81;1700267;75;949226;-70
2023/05/16 10:53:24;;;;;;;6.20;5.60;;;;;;;11.37;100.00;97095.75;1710923;75;678522;-73
2023/05/16 10:56:12;;;;;;;6.30;5.55;;;;;;;11.29;100.00;97087.25;1701765;75;747893;-70
2023/05/16 10:58:47;;;;;;;8.00;6.20;;;;;;;11.38;100.00;97067.13;1702353;75;679287;-71
2023/05/16 11:01:26;;;;;;;8.10;6.30;;;;;;;11.65;100.00;97076.63;1711437;75;677605;-73
2023/05/16 11:04:25;;;;;;;11.40;6.50;;;;;;;11.47;100.00;97067.63;1702721;75;747188;-71
2023/05/16 11:06:57;;;;;;;7.30;6.30;;;;;;;11.39;100.00;97055.63;1703118;75;678914;-74
2023/05/16 11:09:29;;;;;;;9.05;5.65;;;;;;;11.60;100.00;97047.94;1710037;75;743307;-72
2023/05/16 11:12:05;;;;;;;11.90;6.05;;;;;;;12.03;100.00;97047.72;1702170;75;757019;-69
2023/05/16 11:14:43;;;;;;;7.25;6.00;;;;;;;11.86;100.00;97044.97;1702512;75;681227;-70
2023/05/16 11:17:16;;;;;;;7.30;5.50;;;;;;;12.21;100.00;97049.19;1710558;75;676630;-72
2023/05/16 11:19:51;;;;;;;9.05;6.00;;;;;;;12.02;100.00;97048.97;1702999;75;677160;-71
2023/05/16 11:22:28;;;;;;;6.10;5.50;;;;;;;11.99;100.00;97063.69;1710432;75;677433;-70
2023/05/16 11:25:04;;;;;;;7.80;5.70;;;;;;;12.20;100.00;97060.69;1702867;75;681898;-70
2023/05/16 11:27:36;;;;;;;6.30;5.30;;;;;;;12.20;100.00;97052.47;1710589;75;676353;-72
2023/05/16 11:30:16;;;;;;;5.30;4.80;;;;;;;12.23;100.00;97054.94;1687125;75;1963244;-70
2023/05/16 11:32:49;;;;;;;4.30;3.90;;;;;;;12.47;100.00;97054.38;1703484;75;677158;-69
2023/05/16 11:35:22;;;;;;;4.95;3.20;;;;;;;12.50;100.00;97064.34;1711739;75;675914;-70
2023/05/16 11:37:52;;;;;;;5.50;4.30;;;;;;;12.10;100.00;97062.94;1678598;75;2715389;-72
2023/05/16 11:40:22;;;;;;;7.25;4.85;;;;;;;12.00;100.00;97059.72;1710931;75;681614;-71